Time;durP1;ratioP1;P1;durP2;ratioP2;P2;SDS_P1;SDS_P2;PMS_P1;PMS_P2;Temp;Humidity;BMP_temperature;BMP_pressure;BME280_temperature;BME280_humidity;BME280_pressure;Samples;Min_cycle;Max_cycle;Signal;HPM_P1;HPM_P2
2022/12/05 00:00:35;;;;;;;37.47;18.17;;;;;;;3.16;100.00;101610.34;7390706;19;20438;-59
2022/12/05 00:03:06;;;;;;;36.50;18.30;;;;;;;3.18;100.00;101601.19;7394088;19;20384;-58
2022/12/05 00:05:35;;;;;;;40.00;18.90;;;;;;;3.20;100.00;101598.00;7390346;19;20461;-59
2022/12/05 00:08:05;;;;;;;35.40;17.50;;;;;;;3.16;100.00;101592.50;7392620;19;20434;-54
2022/12/05 00:10:37;;;;;;;37.40;17.97;;;;;;;3.06;100.00;101580.63;7390969;19;20407;-59
2022/12/05 00:13:10;;;;;;;36.40;18.20;;;;;;;3.10;100.00;101573.38;7393593;19;20733;-59
2022/12/05 00:15:41;;;;;;;42.67;18.70;;;;;;;3.04;100.00;101557.56;7389123;19;20976;-58
2022/12/05 00:18:10;;;;;;;36.00;17.13;;;;;;;3.06;100.00;101539.81;7391905;19;20415;-59
2022/12/05 00:20:46;;;;;;;40.83;17.90;;;;;;;3.03;100.00;101535.34;7390525;19;20414;-58
2022/12/05 00:23:16;;;;;;;40.43;17.13;;;;;;;2.97;100.00;101535.72;7392795;19;20920;-59
2022/12/05 00:25:45;;;;;;;38.10;18.50;;;;;;;2.97;100.00;101524.63;7389822;19;20476;-58
2022/12/05 00:28:17;;;;;;;40.00;19.13;;;;;;;2.97;100.00;101522.06;7391885;19;20434;-58
2022/12/05 00:30:47;;;;;;;40.60;19.53;;;;;;;3.01;100.00;101521.59;7389837;19;20773;-59
2022/12/05 00:33:16;;;;;;;44.57;18.17;;;;;;;3.02;100.00;101515.72;7397337;19;20411;-58
2022/12/05 00:35:46;;;;;;;41.43;18.80;;;;;;;3.00;100.00;101509.59;7389382;19;20430;-58
2022/12/05 00:38:16;;;;;;;42.80;20.80;;;;;;;3.04;100.00;101509.09;7391833;19;20951;-59
2022/12/05 00:40:45;;;;;;;37.30;18.00;;;;;;;3.04;100.00;101514.22;7391145;19;20982;-58
2022/12/05 00:43:17;;;;;;;42.20;18.27;;;;;;;3.02;100.00;101507.19;7392927;19;20391;-56
2022/12/05 00:45:47;;;;;;;40.27;17.87;;;;;;;3.04;100.00;101514.22;7389060;19;20638;-56
2022/12/05 00:48:16;;;;;;;41.07;17.70;;;;;;;3.09;100.00;101504.38;7391413;19;21287;-57
2022/12/05 00:50:46;;;;;;;41.33;18.20;;;;;;;3.09;100.00;101506.94;7389213;19;20403;-57
2022/12/05 00:53:15;;;;;;;36.20;16.80;;;;;;;3.07;100.00;101509.34;7392467;19;20383;-56
2022/12/05 00:55:45;;;;;;;32.93;16.87;;;;;;;3.32;100.00;101491.00;7388567;19;20415;-59
2022/12/05 00:58:14;;;;;;;71.40;36.13;;;;;;;4.17;100.00;101494.38;7393030;19;20970;-59
2022/12/05 01:00:46;;;;;;;76.20;33.50;;;;;;;4.21;100.00;101481.88;7388254;19;20979;-58
2022/12/05 01:03:16;;;;;;;69.00;32.33;;;;;;;4.44;100.00;101487.13;7391907;19;20908;-58
2022/12/05 01:05:46;;;;;;;64.63;30.20;;;;;;;4.30;100.00;101487.69;7392396;19;20495;-58
2022/12/05 01:08:15;;;;;;;49.33;24.90;;;;;;;4.38;100.00;101491.75;7390911;19;20539;-58
2022/12/05 01:10:54;;;;;;;34.63;17.43;;;;;;;4.11;100.00;101500.69;7388588;19;20427;-57
2022/12/05 01:13:24;;;;;;;34.93;17.60;;;;;;;3.92;100.00;101514.53;7391554;19;20400;-60
2022/12/05 01:15:56;;;;;;;30.33;14.70;;;;;;;3.76;100.00;101522.59;7387765;19;20419;-57
2022/12/05 01:18:26;;;;;;;34.67;17.20;;;;;;;3.73;100.00;101527.44;7389970;19;20956;-54
2022/12/05 01:20:56;;;;;;;36.17;16.57;;;;;;;3.68;100.00;101532.19;7388841;19;20422;-59
2022/12/05 01:23:26;;;;;;;33.00;16.37;;;;;;;3.88;100.00;101538.91;7391264;19;20932;-57
2022/12/05 01:25:55;;;;;;;37.07;18.00;;;;;;;4.03;100.00;101538.38;7387711;19;20437;-60
2022/12/05 01:28:25;;;;;;;35.77;16.13;;;;;;;3.96;100.00;101542.09;7389967;19;20431;-59
2022/12/05 01:30:57;;;;;;;30.57;15.93;;;;;;;3.85;100.00;101536.09;7388667;19;20514;-57
2022/12/05 01:33:27;;;;;;;28.70;15.23;;;;;;;3.86;100.00;101545.56;7391175;19;20743;-59
2022/12/05 01:35:56;;;;;;;31.23;14.63;;;;;;;3.82;100.00;101545.16;7388122;19;20440;-59
2022/12/05 01:38:25;;;;;;;32.10;16.67;;;;;;;3.77;100.00;101543.16;7389593;19;20423;-56
2022/12/05 01:41:02;;;;;;;30.70;16.00;;;;;;;3.78;100.00;101538.94;7387270;19;20431;-59
2022/12/05 01:43:31;;;;;;;28.07;15.37;;;;;;;3.62;100.00;101539.31;7390611;19;20391;-59
2022/12/05 01:46:03;;;;;;;28.20;14.53;;;;;;;3.52;100.00;101540.22;7386842;19;20887;-59
2022/12/05 01:48:36;;;;;;;36.77;16.53;;;;;;;3.48;100.00;101535.63;7392595;19;20431;-59
2022/12/05 01:51:05;;;;;;;32.40;15.10;;;;;;;3.45;100.00;101535.38;7387626;19;20987;-56
2022/12/05 01:53:35;;;;;;;27.80;14.30;;;;;;;3.47;100.00;101533.84;7390479;19;20407;-59
2022/12/05 01:56:05;;;;;;;32.77;15.77;;;;;;;3.46;100.00;101537.16;7386971;19;20415;-56
2022/12/05 01:58:38;;;;;;;26.80;14.47;;;;;;;3.47;100.00;101533.84;7391424;19;20808;-55
2022/12/05 02:01:10;;;;;;;96.23;39.80;;;;;;;3.49;100.00;101524.69;7388186;19;20423;-54
2022/12/05 02:03:40;;;;;;;42.57;19.73;;;;;;;3.54;100.00;101520.81;7390129;19;20406;-60
2022/12/05 02:06:10;;;;;;;50.87;22.90;;;;;;;3.51;100.00;101521.50;7387045;19;20451;-58
2022/12/05 02:08:40;;;;;;;34.53;17.10;;;;;;;3.52;100.00;101522.38;7389667;19;20791;-59
2022/12/05 02:11:10;;;;;;;39.67;17.27;;;;;;;3.51;100.00;101520.59;7383793;19;20407;-56
2022/12/05 02:13:55;;;;;;;53.87;25.50;;;;;;;3.55;100.00;101512.44;7386967;19;20764;-58
2022/12/05 02:16:33;;;;;;;43.53;20.87;;;;;;;3.50;100.00;101514.56;7382298;19;20773;-57
2022/12/05 02:19:16;;;;;;;39.77;19.00;;;;;;;3.48;100.00;101511.00;7383984;19;20427;-60
2022/12/05 02:22:00;;;;;;;32.90;16.20;;;;;;;3.38;100.00;101511.91;7383258;19;20418;-56
2022/12/05 02:24:44;;;;;;;30.40;15.90;;;;;;;3.44;100.00;101508.09;7387004;19;20410;-57
2022/12/05 02:27:25;;;;;;;35.43;16.80;;;;;;;3.35;100.00;101514.19;7382112;19;20811;-59
2022/12/05 02:30:18;;;;;;;36.67;16.03;;;;;;;3.36;100.00;101505.81;7393044;19;20395;-54
2022/12/05 02:33:02;;;;;;;34.87;16.87;;;;;;;3.42;100.00;101499.41;7386985;19;20427;-57
2022/12/05 02:35:48;;;;;;;36.30;15.80;;;;;;;3.42;100.00;101499.41;7386631;19;20932;-58
2022/12/05 02:38:25;;;;;;;37.27;17.63;;;;;;;3.45;100.00;101497.13;7388456;19;20494;-59
2022/12/05 02:41:03;;;;;;;33.43;16.17;;;;;;;3.46;100.00;101499.81;7388313;19;20470;-59
2022/12/05 02:43:34;;;;;;;49.07;19.07;;;;;;;3.44;100.00;101493.66;7389083;19;20379;-58
2022/12/05 02:46:10;;;;;;;37.50;18.03;;;;;;;3.47;100.00;101493.03;7385512;19;20407;-57
2022/12/05 02:48:41;;;;;;;44.13;18.30;;;;;;;3.49;100.00;101487.28;7387467;19;20426;-59
2022/12/05 02:51:11;;;;;;;39.97;18.33;;;;;;;3.54;100.00;101485.09;7386930;19;20423;-58
2022/12/05 02:53:41;;;;;;;43.37;18.30;;;;;;;3.51;100.00;101479.75;7391009;19;20392;-58
2022/12/05 02:56:10;;;;;;;44.00;17.87;;;;;;;3.45;100.00;101490.38;7393385;19;20407;-56
2022/12/05 02:58:43;;;;;;;39.53;17.77;;;;;;;3.46;100.00;101486.13;7396470;19;20423;-54
2022/12/05 03:01:15;;;;;;;39.00;17.67;;;;;;;3.45;100.00;101477.59;7393437;19;20421;-55
2022/12/05 03:03:44;;;;;;;36.40;17.50;;;;;;;3.45;100.00;101479.25;7395939;19;20399;-58
2022/12/05 03:06:16;;;;;;;36.63;17.13;;;;;;;3.44;100.00;101482.56;7392780;19;20438;-55
2022/12/05 03:08:48;;;;;;;38.00;17.40;;;;;;;3.48;100.00;101477.84;7393893;19;20454;-56
2022/12/05 03:11:17;;;;;;;43.23;17.57;;;;;;;3.51;100.00;101480.66;7393544;19;20783;-58
2022/12/05 03:13:50;;;;;;;37.10;16.90;;;;;;;3.48;100.00;101479.50;7393346;19;21000;-58
2022/12/05 03:16:25;;;;;;;36.10;16.27;;;;;;;3.50;100.00;101483.09;7392120;19;20419;-58
2022/12/05 03:18:57;;;;;;;35.97;17.03;;;;;;;3.49;100.00;101481.31;7392970;19;20423;-59
2022/12/05 03:21:31;;;;;;;36.80;16.93;;;;;;;3.48;100.00;101480.41;7393065;19;20414;-59
2022/12/05 03:24:04;;;;;;;47.53;21.90;;;;;;;3.56;100.00;101478.47;7395458;19;20411;-56
2022/12/05 03:26:39;;;;;;;46.17;19.40;;;;;;;3.51;100.00;101484.84;7391856;19;20415;-58
2022/12/05 03:29:21;;;;;;;48.13;21.80;;;;;;;3.58;100.00;101479.47;7393664;19;20787;-58
2022/12/05 03:32:01;;;;;;;53.23;22.60;;;;;;;3.59;100.00;101478.72;7392009;19;20410;-57
2022/12/05 03:34:37;;;;;;;35.20;17.27;;;;;;;3.61;100.00;101489.97;7395231;19;20398;-56
2022/12/05 03:37:12;;;;;;;37.40;17.80;;;;;;;3.55;100.00;101486.91;7391298;19;20419;-59
2022/12/05 03:39:45;;;;;;;35.97;16.77;;;;;;;3.51;100.00;101482.31;7398710;19;20399;-58
2022/12/05 03:42:16;;;;;;;40.33;17.40;;;;;;;3.51;100.00;101479.75;7392307;19;20419;-55
2022/12/05 03:44:50;;;;;;;41.37;17.70;;;;;;;3.53;100.00;101485.88;7394401;19;20387;-55
2022/12/05 03:47:28;;;;;;;36.47;16.33;;;;;;;3.50;100.00;101490.75;7390340;19;20419;-54
2022/12/05 03:50:01;;;;;;;34.47;17.60;;;;;;;3.55;100.00;101494.56;7394606;19;20391;-59
2022/12/05 03:52:32;;;;;;;38.73;17.77;;;;;;;3.54;100.00;101485.09;7391203;19;20435;-59
2022/12/05 03:55:24;;;;;;;38.43;18.07;;;;;;;3.55;100.00;101486.91;7392669;19;20925;-58
2022/12/05 03:57:57;;;;;;;37.17;16.57;;;;;;;3.57;100.00;101485.38;7392843;19;20427;-58
2022/12/05 04:00:28;;;;;;;40.37;18.97;;;;;;;3.54;100.00;101490.19;7391995;19;20728;-59
2022/12/05 04:03:06;;;;;;;42.70;19.53;;;;;;;3.58;100.00;101492.25;7393550;19;20383;-56
2022/12/05 04:05:39;;;;;;;44.50;18.40;;;;;;;3.58;100.00;101487.13;7389655;19;20754;-57
2022/12/05 04:08:13;;;;;;;40.47;18.73;;;;;;;3.62;100.00;101499.41;7393228;19;20447;-58
2022/12/05 04:10:49;;;;;;;43.37;19.00;;;;;;;3.60;100.00;101500.03;7391031;19;20403;-56
2022/12/05 04:13:22;;;;;;;50.37;22.00;;;;;;;3.63;100.00;101505.38;7392894;19;20594;-53
2022/12/05 04:18:46;;;;;;;48.43;20.47;;;;;;;3.60;100.00;101511.13;7391807;19;21055;-58
2022/12/05 04:26:46;;;;;;;45.43;20.47;;;;;;;3.63;100.00;101511.38;7387842;19;20458;-58
2022/12/05 04:29:19;;;;;;;54.13;21.27;;;;;;;3.69;100.00;101510.09;7391457;19;20980;-59
2022/12/05 04:31:52;;;;;;;45.40;19.60;;;;;;;3.52;100.00;101509.59;7390358;19;20415;-57
2022/12/05 04:34:27;;;;;;;52.43;21.60;;;;;;;3.57;100.00;101515.09;7391480;19;20376;-58
2022/12/05 04:36:58;;;;;;;46.37;22.17;;;;;;;3.61;100.00;101523.13;7389322;19;20461;-59
2022/12/05 04:39:33;;;;;;;52.73;21.97;;;;;;;3.49;100.00;101522.13;7393167;19;20957;-55
2022/12/05 04:42:06;;;;;;;51.63;21.00;;;;;;;3.57;100.00;101521.09;7389806;19;20415;-56
2022/12/05 04:44:39;;;;;;;50.30;21.60;;;;;;;3.56;100.00;101529.53;7392790;19;20395;-55
2022/12/05 04:47:10;;;;;;;53.90;20.50;;;;;;;3.53;100.00;101526.69;7388681;19;20451;-57
2022/12/05 04:49:42;;;;;;;45.00;19.00;;;;;;;3.56;100.00;101529.53;7395825;19;20403;-57
2022/12/05 04:52:17;;;;;;;56.30;22.87;;;;;;;3.55;100.00;101530.28;7390716;19;20451;-55
2022/12/05 04:54:49;;;;;;;51.80;21.43;;;;;;;3.59;100.00;101539.97;7392290;19;20502;-57
2022/12/05 04:57:21;;;;;;;47.63;20.53;;;;;;;3.54;100.00;101535.25;7389323;19;20435;-56
2022/12/05 04:59:51;;;;;;;64.40;22.70;;;;;;;3.55;100.00;101548.16;7392065;19;20376;-59
2022/12/05 05:02:25;;;;;;;58.27;23.33;;;;;;;3.61;100.00;101545.19;7389425;19;20413;-56
2022/12/05 05:04:59;;;;;;;49.27;21.30;;;;;;;3.61;100.00;101543.56;7392146;19;20387;-56
2022/12/05 05:07:29;;;;;;;69.60;24.30;;;;;;;3.60;100.00;101551.94;7388693;19;20434;-58
2022/12/05 05:09:58;;;;;;;57.27;21.87;;;;;;;3.61;100.00;101553.75;7391866;19;20785;-54
2022/12/05 05:12:28;;;;;;;56.37;21.73;;;;;;;3.57;100.00;101545.69;7389573;19;20482;-59
2022/12/05 05:14:57;;;;;;;53.40;22.47;;;;;;;3.55;100.00;101550.72;7391844;19;20388;-54
2022/12/05 05:17:27;;;;;;;48.63;19.97;;;;;;;3.57;100.00;101546.59;7385404;19;20442;-52
2022/12/05 05:20:22;;;;;;;53.17;21.20;;;;;;;3.61;100.00;101542.66;7391369;19;20383;-57
2022/12/05 05:22:52;;;;;;;52.67;21.13;;;;;;;3.62;100.00;101544.44;7390470;19;20442;-56
2022/12/05 05:25:21;;;;;;;52.57;21.37;;;;;;;3.60;100.00;101540.88;7389321;19;20391;-56
2022/12/05 05:27:52;;;;;;;48.20;20.20;;;;;;;3.64;100.00;101543.78;7389583;19;20451;-54
2022/12/05 05:30:23;;;;;;;49.20;21.27;;;;;;;3.62;100.00;101545.34;7389088;19;20427;-55
2022/12/05 05:32:53;;;;;;;50.63;21.93;;;;;;;3.57;100.00;101546.59;7390623;19;20388;-58
2022/12/05 05:35:25;;;;;;;68.73;30.40;;;;;;;4.69;100.00;101540.19;7390688;19;20392;-58
2022/12/05 05:37:55;;;;;;;59.47;25.83;;;;;;;4.97;100.00;101549.97;7389927;19;20419;-55
2022/12/05 05:40:24;;;;;;;102.37;41.57;;;;;;;5.44;100.00;101540.69;7389298;19;20392;-57
2022/12/05 05:42:53;;;;;;;90.43;37.07;;;;;;;5.40;100.00;101541.25;7390446;19;20389;-59
2022/12/05 05:45:23;;;;;;;106.17;43.80;;;;;;;5.47;100.00;101556.28;7389421;19;20438;-58
2022/12/05 05:47:52;;;;;;;67.60;28.20;;;;;;;5.29;100.00;101560.00;7389573;19;20453;-58
2022/12/05 05:50:24;;;;;;;65.53;25.50;;;;;;;4.68;100.00;101573.28;7388439;19;20379;-58
2022/12/05 05:52:54;;;;;;;58.73;23.20;;;;;;;4.52;100.00;101591.63;7390179;19;20403;-56
2022/12/05 05:55:23;;;;;;;61.23;23.80;;;;;;;4.42;100.00;101596.00;7388711;19;20392;-58
2022/12/05 05:57:53;;;;;;;54.30;22.20;;;;;;;4.33;100.00;101601.25;7388858;19;20424;-57
2022/12/05 06:00:23;;;;;;;59.20;22.10;;;;;;;4.16;100.00;101616.91;7388428;19;20739;-56
2022/12/05 06:02:52;;;;;;;54.60;21.23;;;;;;;4.08;100.00;101623.03;7389747;19;20387;-53
2022/12/05 06:05:24;;;;;;;53.07;22.00;;;;;;;3.88;100.00;101625.72;7388362;19;20889;-59
2022/12/05 06:07:54;;;;;;;59.93;23.17;;;;;;;3.72;100.00;101637.97;7389053;19;20403;-58
2022/12/05 06:10:23;;;;;;;58.30;23.37;;;;;;;3.61;100.00;101640.53;7387803;19;20393;-58
2022/12/05 06:12:53;;;;;;;53.07;22.23;;;;;;;3.50;100.00;101637.06;7389731;19;20471;-56
2022/12/05 06:15:22;;;;;;;63.10;23.60;;;;;;;3.45;100.00;101637.44;7385725;19;20391;-56
2022/12/05 06:17:52;;;;;;;52.30;21.40;;;;;;;3.36;100.00;101638.47;7388469;19;20423;-54
2022/12/05 06:20:21;;;;;;;66.43;22.70;;;;;;;3.39;100.00;101648.03;7387869;19;20415;-57
2022/12/05 06:22:53;;;;;;;56.60;22.57;;;;;;;3.37;100.00;101640.25;7389433;19;20400;-54
2022/12/05 06:25:22;;;;;;;56.17;20.37;;;;;;;3.41;100.00;101640.50;7387807;19;20415;-58
2022/12/05 06:27:52;;;;;;;76.67;28.53;;;;;;;3.40;100.00;101643.81;7390479;19;20427;-57
2022/12/05 06:30:21;;;;;;;59.37;22.03;;;;;;;3.34;100.00;101639.97;7394992;19;20387;-56
2022/12/05 06:32:51;;;;;;;58.57;22.10;;;;;;;3.29;100.00;101645.47;7396497;19;20406;-55
2022/12/05 06:35:20;;;;;;;55.00;22.20;;;;;;;3.33;100.00;101644.97;7392160;19;20407;-58
2022/12/05 06:37:53;;;;;;;66.50;24.80;;;;;;;3.33;100.00;101642.41;7395076;19;20423;-55
2022/12/05 06:40:23;;;;;;;56.73;22.70;;;;;;;3.28;100.00;101639.44;7394506;19;20391;-59
2022/12/05 06:42:52;;;;;;;69.83;25.73;;;;;;;3.28;100.00;101642.00;7396093;19;20766;-57
2022/12/05 06:45:22;;;;;;;65.90;23.93;;;;;;;3.13;100.00;101645.78;7394241;19;20387;-58
2022/12/05 06:47:52;;;;;;;66.43;22.80;;;;;;;3.10;100.00;101646.44;7397013;19;20458;-56
2022/12/05 06:50:22;;;;;;;63.37;23.27;;;;;;;3.12;100.00;101646.56;7397487;19;20426;-59
2022/12/05 06:52:54;;;;;;;58.77;22.23;;;;;;;3.00;100.00;101636.19;7395711;19;20399;-58
2022/12/05 06:55:23;;;;;;;63.77;23.13;;;;;;;3.05;100.00;101646.03;7392257;19;20410;-54
2022/12/05 06:57:53;;;;;;;69.00;23.57;;;;;;;3.06;100.00;101637.63;7394463;19;20427;-54
2022/12/05 07:03:05;;;;;;;55.90;21.00;;;;;;;2.98;100.00;101638.63;7396195;19;20383;-59
2022/12/05 07:05:34;;;;;;;59.00;21.00;;;;;;;3.03;100.00;101637.34;7392539;19;21004;-59
2022/12/05 07:08:07;;;;;;;60.00;22.60;;;;;;;3.10;100.00;101638.78;7395038;19;20486;-57
2022/12/05 07:10:36;;;;;;;60.23;22.00;;;;;;;3.05;100.00;101635.84;7392891;19;20402;-57
2022/12/05 07:13:06;;;;;;;67.23;22.43;;;;;;;3.07;100.00;101641.94;7395846;19;20391;-57
2022/12/05 07:15:39;;;;;;;60.73;23.50;;;;;;;3.15;100.00;101641.72;7389928;19;20419;-56
2022/12/05 07:18:09;;;;;;;63.90;22.10;;;;;;;3.09;100.00;101627.66;7394172;19;20395;-55
2022/12/05 07:20:38;;;;;;;55.57;23.13;;;;;;;3.01;100.00;101636.31;7393159;19;20402;-53
2022/12/05 07:23:30;;;;;;;120.40;25.10;;;;;;;3.02;100.00;101634.69;7395806;19;20467;-58
2022/12/05 07:26:00;;;;;;;65.10;22.73;;;;;;;3.02;100.00;101635.56;7391725;19;20471;-56
2022/12/05 07:28:30;;;;;;;77.10;24.20;;;;;;;2.98;100.00;101638.63;7393966;19;21051;-53
2022/12/05 07:31:03;;;;;;;63.23;23.40;;;;;;;2.87;100.00;101629.16;7391490;19;20438;-56
2022/12/05 07:33:32;;;;;;;64.47;23.27;;;;;;;2.83;100.00;101627.97;7397553;19;20391;-53
2022/12/05 07:36:02;;;;;;;63.13;21.53;;;;;;;2.73;100.00;101631.38;7390143;19;20944;-58
2022/12/05 07:38:34;;;;;;;59.27;21.70;;;;;;;2.80;100.00;101628.59;7392763;19;20673;-51
2022/12/05 07:41:06;;;;;;;68.77;23.40;;;;;;;2.77;100.00;101627.44;7391243;19;21294;-55
2022/12/05 07:43:41;;;;;;;55.33;20.77;;;;;;;2.76;100.00;101628.22;7394517;19;20398;-55
2022/12/05 07:46:12;;;;;;;61.23;21.60;;;;;;;2.79;100.00;101631.00;7391067;19;20949;-54
2022/12/05 07:48:42;;;;;;;60.40;22.17;;;;;;;2.79;100.00;101629.38;7392992;19;20431;-54
2022/12/05 07:51:12;;;;;;;52.00;20.30;;;;;;;2.74;100.00;101628.06;7392174;19;20411;-50
2022/12/05 07:53:45;;;;;;;70.30;24.10;;;;;;;2.72;100.00;101624.47;7394151;19;20399;-52
2022/12/05 07:56:16;;;;;;;55.80;20.73;;;;;;;2.66;100.00;101623.97;7392330;19;20433;-54
2022/12/05 07:58:46;;;;;;;58.87;21.97;;;;;;;2.73;100.00;101631.38;7392487;19;20802;-58
2022/12/05 08:01:18;;;;;;;63.63;22.40;;;;;;;2.72;100.00;101634.66;7391370;19;20434;-52
2022/12/05 08:03:48;;;;;;;58.57;21.10;;;;;;;2.72;100.00;101637.22;7393995;19;20388;-55
2022/12/05 08:06:19;;;;;;;60.17;21.13;;;;;;;2.66;100.00;101637.59;7390860;19;20398;-52
2022/12/05 08:08:52;;;;;;;63.77;21.10;;;;;;;2.67;100.00;101625.75;7392231;19;20431;-58
2022/12/05 08:11:23;;;;;;;61.73;22.93;;;;;;;2.66;100.00;101634.16;7391057;19;20407;-53
2022/12/05 08:13:53;;;;;;;60.83;21.90;;;;;;;2.69;100.00;101629.31;7393788;19;20399;-58
2022/12/05 08:16:25;;;;;;;56.50;22.70;;;;;;;2.68;100.00;101627.53;7388453;19;20941;-56
2022/12/05 08:18:56;;;;;;;58.23;21.23;;;;;;;2.70;100.00;101629.47;7391557;19;20483;-55
2022/12/05 08:21:26;;;;;;;56.60;21.47;;;;;;;2.70;100.00;101631.09;7391139;19;20791;-55
2022/12/05 08:23:59;;;;;;;59.53;21.57;;;;;;;2.61;100.00;101630.31;7393273;19;20757;-59
2022/12/05 08:26:30;;;;;;;54.33;20.87;;;;;;;2.60;100.00;101620.88;7390357;19;20458;-55
2022/12/05 08:29:01;;;;;;;58.13;20.30;;;;;;;2.67;100.00;101630.84;7391596;19;20442;-56
2022/12/05 08:31:33;;;;;;;56.53;21.13;;;;;;;2.70;100.00;101632.00;7390691;19;20391;-56
2022/12/05 08:34:03;;;;;;;59.43;20.60;;;;;;;2.71;100.00;101627.78;7393183;19;20388;-58
2022/12/05 08:36:33;;;;;;;55.90;20.57;;;;;;;2.66;100.00;101637.59;7389167;19;20829;-56
2022/12/05 08:39:06;;;;;;;52.93;20.10;;;;;;;2.62;100.00;101637.19;7391275;19;20782;-57
2022/12/05 08:41:36;;;;;;;53.57;20.60;;;;;;;2.58;100.00;101647.84;7392883;19;20446;-56
2022/12/05 08:44:09;;;;;;;53.70;19.60;;;;;;;2.55;100.00;101651.94;7392884;19;20415;-55
2022/12/05 08:46:40;;;;;;;51.07;20.40;;;;;;;2.58;100.00;101645.31;7389034;19;20414;-57
2022/12/05 08:49:10;;;;;;;64.23;20.53;;;;;;;2.50;100.00;101652.28;7391190;19;21073;-57
2022/12/05 08:51:39;;;;;;;52.70;20.07;;;;;;;2.51;100.00;101654.97;7389607;19;20415;-57
2022/12/05 08:54:12;;;;;;;48.77;18.90;;;;;;;2.55;100.00;101654.47;7396759;19;20529;-58
2022/12/05 08:56:41;;;;;;;52.97;19.70;;;;;;;2.53;100.00;101658.56;7388076;19;20415;-54
2022/12/05 08:59:11;;;;;;;58.00;20.10;;;;;;;2.56;100.00;101666.47;7390788;19;20447;-55
2022/12/05 09:01:41;;;;;;;59.07;21.13;;;;;;;2.53;100.00;101663.66;7388973;19;20419;-56
2022/12/05 09:04:11;;;;;;;58.30;19.27;;;;;;;2.52;100.00;101666.94;7392457;19;20968;-56
2022/12/05 09:06:41;;;;;;;54.20;19.30;;;;;;;2.50;100.00;101663.38;7388599;19;20491;-53
2022/12/05 09:09:13;;;;;;;51.60;20.80;;;;;;;2.52;100.00;101671.16;7390717;19;20423;-56
2022/12/05 09:11:47;;;;;;;56.30;20.17;;;;;;;2.49;100.00;101669.22;7387272;19;20423;-56
2022/12/05 09:14:17;;;;;;;65.20;23.17;;;;;;;2.51;100.00;101670.25;7392088;19;20399;-57
2022/12/05 09:16:49;;;;;;;54.50;21.77;;;;;;;2.43;100.00;101672.09;7386938;19;20407;-53
2022/12/05 09:19:22;;;;;;;56.10;22.40;;;;;;;2.49;100.00;101664.13;7389997;19;20419;-57
2022/12/05 09:21:52;;;;;;;64.53;23.10;;;;;;;2.48;100.00;101666.53;7389068;19;20768;-55
2022/12/05 09:24:27;;;;;;;63.17;21.77;;;;;;;2.45;100.00;101667.16;7389835;19;20830;-55
2022/12/05 09:26:56;;;;;;;65.93;23.50;;;;;;;2.45;100.00;101664.59;7388449;19;20975;-56
2022/12/05 09:29:28;;;;;;;65.93;22.13;;;;;;;2.41;100.00;101665.97;7389873;19;20411;-53
2022/12/05 09:31:57;;;;;;;61.63;22.73;;;;;;;2.42;100.00;101669.44;7388224;19;20429;-57
2022/12/05 09:34:28;;;;;;;61.53;21.07;;;;;;;2.42;100.00;101674.53;7391111;19;20359;-57
2022/12/05 09:36:59;;;;;;;65.97;23.10;;;;;;;2.40;100.00;101665.84;7387889;19;20454;-57
2022/12/05 09:39:51;;;;;;;76.93;23.00;;;;;;;2.31;100.00;101673.59;7391203;19;20420;-57
2022/12/05 09:42:42;;;;;;;67.57;21.80;;;;;;;2.26;100.00;101668.03;7388514;19;20419;-54
2022/12/05 09:45:25;;;;;;;66.70;20.87;;;;;;;2.24;100.00;101669.56;7390925;19;20416;-52
2022/12/05 09:47:59;;;;;;;80.50;21.53;;;;;;;2.22;100.00;101663.47;7389396;19;20422;-56
2022/12/05 09:50:31;;;;;;;62.20;21.57;;;;;;;2.23;100.00;101657.59;7388863;19;20415;-56
2022/12/05 09:53:04;;;;;;;68.83;22.20;;;;;;;2.23;100.00;101651.59;7389475;19;20425;-54
2022/12/05 09:55:45;;;;;;;68.37;24.73;;;;;;;2.24;100.00;101649.19;7385337;19;20423;-53
2022/12/05 09:58:30;;;;;;;60.30;20.23;;;;;;;2.26;100.00;101641.72;7393469;19;20423;-54
2022/12/05 10:01:07;;;;;;;61.87;22.20;;;;;;;2.22;100.00;101640.53;7390468;19;20419;-57
2022/12/05 10:03:43;;;;;;;64.87;21.00;;;;;;;2.23;100.00;101642.31;7396519;19;20395;-56
2022/12/05 10:06:16;;;;;;;59.60;19.67;;;;;;;2.24;100.00;101639.00;7394751;19;20426;-54
2022/12/05 10:08:59;;;;;;;66.63;22.83;;;;;;;2.51;100.00;101636.25;7395696;19;20463;-58
2022/12/05 10:11:36;;;;;;;59.00;22.53;;;;;;;2.64;100.00;101630.56;7395022;19;20434;-58
2022/12/05 10:14:10;;;;;;;61.10;20.37;;;;;;;2.65;100.00;101632.34;7397722;19;20410;-59
2022/12/05 10:16:44;;;;;;;59.10;20.97;;;;;;;2.53;100.00;101630.53;7392475;19;20794;-59
2022/12/05 10:19:17;;;;;;;56.40;19.57;;;;;;;2.68;100.00;101627.53;7394899;19;20837;-57
2022/12/05 10:21:52;;;;;;;62.50;19.27;;;;;;;2.65;100.00;101625.59;7394678;19;20407;-58
2022/12/05 10:24:28;;;;;;;50.50;18.27;;;;;;;2.64;100.00;101625.47;7397437;19;20395;-59
2022/12/05 10:27:02;;;;;;;60.93;20.67;;;;;;;2.40;100.00;101625.09;7393945;19;20785;-59
2022/12/05 10:29:34;;;;;;;64.73;21.53;;;;;;;2.66;100.00;101614.66;7395773;19;20431;-60
2022/12/05 10:32:07;;;;;;;54.17;20.23;;;;;;;2.76;100.00;101621.44;7395009;19;20419;-54
2022/12/05 10:34:41;;;;;;;52.27;19.80;;;;;;;2.79;100.00;101616.63;7396846;19;20763;-54
2022/12/05 10:37:15;;;;;;;61.03;19.10;;;;;;;2.65;100.00;101607.78;7391306;19;20423;-57
2022/12/05 10:39:45;;;;;;;51.47;17.43;;;;;;;2.61;100.00;101610.81;7396656;19;20386;-59
2022/12/05 10:42:19;;;;;;;56.67;18.40;;;;;;;2.54;100.00;101611.03;7394596;19;21009;-58
2022/12/05 10:44:50;;;;;;;52.33;18.63;;;;;;;2.62;100.00;101609.16;7396582;19;20399;-52
2022/12/05 10:47:19;;;;;;;54.07;18.87;;;;;;;2.64;100.00;101607.63;7392609;19;20415;-53
2022/12/05 10:49:49;;;;;;;57.13;20.63;;;;;;;2.65;100.00;101604.31;7396344;19;20427;-54
2022/12/05 10:52:19;;;;;;;55.80;19.30;;;;;;;2.79;100.00;101602.97;7397091;19;20523;-55
2022/12/05 10:54:52;;;;;;;57.00;21.93;;;;;;;2.81;100.00;101604.91;7396106;19;20384;-57
2022/12/05 10:57:28;;;;;;;56.80;20.40;;;;;;;2.90;100.00;101606.44;7391233;19;20431;-57
2022/12/05 10:59:59;;;;;;;58.67;20.90;;;;;;;2.86;100.00;101612.06;7401026;19;21085;-57
2022/12/05 11:02:30;;;;;;;60.67;21.37;;;;;;;2.81;100.00;101606.53;7393421;19;20418;-55
2022/12/05 11:05:00;;;;;;;53.10;19.30;;;;;;;2.85;100.00;101606.06;7400410;19;20407;-58
2022/12/05 11:07:32;;;;;;;62.00;19.83;;;;;;;2.88;100.00;101605.44;7392403;19;20789;-58
2022/12/05 11:10:04;;;;;;;63.67;21.03;;;;;;;2.95;100.00;101608.66;7395909;19;20384;-56
2022/12/05 11:12:41;;;;;;;61.67;20.57;;;;;;;2.70;100.00;101603.06;7392844;19;20402;-58
2022/12/05 11:15:24;;;;;;;61.50;21.33;;;;;;;2.79;100.00;101601.34;7393424;19;20402;-56
2022/12/05 11:17:54;;;;;;;57.60;19.00;;;;;;;2.66;100.00;101603.59;7392154;19;20431;-58
2022/12/05 11:20:41;;;;;;;56.30;20.63;;;;;;;2.72;100.00;101600.66;7392232;19;20395;-58
2022/12/05 11:23:25;;;;;;;57.77;20.47;;;;;;;2.81;100.00;101604.00;7395172;19;20439;-52
2022/12/05 11:25:56;;;;;;;54.30;20.07;;;;;;;2.70;100.00;101603.06;7387302;19;20400;-55
2022/12/05 11:28:33;;;;;;;60.10;19.20;;;;;;;2.80;100.00;101600.56;7385912;19;20778;-54
2022/12/05 11:31:05;;;;;;;49.50;18.70;;;;;;;2.79;100.00;101603.88;7385583;19;20393;-59
2022/12/05 11:33:35;;;;;;;48.93;17.63;;;;;;;2.78;100.00;101603.75;7390079;19;20399;-56
2022/12/05 11:36:11;;;;;;;53.90;19.37;;;;;;;2.64;100.00;101599.97;7392871;19;20396;-53
2022/12/05 11:38:41;;;;;;;53.10;19.20;;;;;;;2.47;100.00;101593.41;7388998;19;20425;-57
2022/12/05 11:41:34;;;;;;;45.00;18.13;;;;;;;2.39;100.00;101587.63;7389722;19;20367;-57
2022/12/05 11:44:16;;;;;;;49.70;18.77;;;;;;;2.37;100.00;101594.25;7389418;19;20403;-54